sensor_id;sensor_type;location;lat;lon;timestamp;P1;durP1;ratioP1;P2;durP2;ratioP2
56517;SDS011;42419;48.760;2.322;2022-08-01T00:01:30;1.40;;;1.10;;
56517;SDS011;42419;48.760;2.322;2022-08-01T00:03:56;1.40;;;1.20;;
56517;SDS011;42419;48.760;2.322;2022-08-01T00:06:21;1.60;;;1.20;;
56517;SDS011;42419;48.760;2.322;2022-08-01T00:08:47;1.20;;;1.00;;
56517;SDS011;42419;48.760;2.322;2022-08-01T00:11:12;1.50;;;1.30;;
56517;SDS011;42419;48.760;2.322;2022-08-01T00:13:37;1.60;;;1.07;;
56517;SDS011;42419;48.760;2.322;2022-08-01T00:16:03;2.03;;;1.20;;
56517;SDS011;42419;48.760;2.322;2022-08-01T00:18:28;1.60;;;1.17;;
56517;SDS011;42419;48.760;2.322;2022-08-01T00:20:53;1.27;;;1.17;;
56517;SDS011;42419;48.760;2.322;2022-08-01T00:23:19;1.20;;;1.10;;
56517;SDS011;42419;48.760;2.322;2022-08-01T00:25:44;1.93;;;1.10;;
56517;SDS011;42419;48.760;2.322;2022-08-01T00:28:09;1.40;;;1.13;;
56517;SDS011;42419;48.760;2.322;2022-08-01T00:30:35;1.80;;;1.30;;
56517;SDS011;42419;48.760;2.322;2022-08-01T00:33:01;1.50;;;1.13;;
56517;SDS011;42419;48.760;2.322;2022-08-01T00:35:27;1.50;;;1.20;;
56517;SDS011;42419;48.760;2.322;2022-08-01T00:37:52;1.20;;;1.10;;
56517;SDS011;42419;48.760;2.322;2022-08-01T00:40:18;1.40;;;1.30;;
56517;SDS011;42419;48.760;2.322;2022-08-01T00:42:43;1.30;;;1.10;;
56517;SDS011;42419;48.760;2.322;2022-08-01T00:45:09;1.40;;;1.30;;
56517;SDS011;42419;48.760;2.322;2022-08-01T00:47:35;1.30;;;1.10;;
56517;SDS011;42419;48.760;2.322;2022-08-01T00:50:00;1.40;;;1.10;;
56517;SDS011;42419;48.760;2.322;2022-08-01T00:52:28;1.30;;;1.10;;
56517;SDS011;42419;48.760;2.322;2022-08-01T00:54:54;1.40;;;1.20;;
56517;SDS011;42419;48.760;2.322;2022-08-01T00:57:19;1.80;;;1.37;;
56517;SDS011;42419;48.760;2.322;2022-08-01T00:59:45;1.33;;;1.00;;
56517;SDS011;42419;48.760;2.322;2022-08-01T01:02:10;1.33;;;1.10;;
56517;SDS011;42419;48.760;2.322;2022-08-01T01:04:35;1.33;;;1.23;;
56517;SDS011;42419;48.760;2.322;2022-08-01T01:10:03;1.47;;;1.33;;
56517;SDS011;42419;48.760;2.322;2022-08-01T01:12:47;2.00;;;1.40;;
56517;SDS011;42419;48.760;2.322;2022-08-01T01:15:25;1.37;;;1.10;;
56517;SDS011;42419;48.760;2.322;2022-08-01T01:18:30;1.50;;;1.20;;
56517;SDS011;42419;48.760;2.322;2022-08-01T01:26:23;1.40;;;1.10;;
56517;SDS011;42419;48.760;2.322;2022-08-01T01:34:18;1.73;;;1.20;;
56517;SDS011;42419;48.760;2.322;2022-08-01T01:36:46;1.90;;;1.70;;
56517;SDS011;42419;48.760;2.322;2022-08-01T01:39:13;2.13;;;1.50;;
56517;SDS011;42419;48.760;2.322;2022-08-01T01:41:39;1.67;;;1.47;;
56517;SDS011;42419;48.760;2.322;2022-08-01T01:44:07;1.53;;;1.40;;
56517;SDS011;42419;48.760;2.322;2022-08-01T01:46:34;1.83;;;1.57;;
56517;SDS011;42419;48.760;2.322;2022-08-01T01:49:01;2.00;;;1.70;;
56517;SDS011;42419;48.760;2.322;2022-08-01T01:51:27;1.93;;;1.40;;
56517;SDS011;42419;48.760;2.322;2022-08-01T01:53:54;1.87;;;1.40;;
56517;SDS011;42419;48.760;2.322;2022-08-01T01:56:21;1.10;;;0.97;;
56517;SDS011;42419;48.760;2.322;2022-08-01T01:58:52;1.40;;;1.30;;
56517;SDS011;42419;48.760;2.322;2022-08-01T02:01:21;1.50;;;1.33;;
56517;SDS011;42419;48.760;2.322;2022-08-01T02:03:50;1.20;;;1.00;;
56517;SDS011;42419;48.760;2.322;2022-08-01T02:06:18;1.60;;;1.20;;
56517;SDS011;42419;48.760;2.322;2022-08-01T02:08:44;1.30;;;1.20;;
56517;SDS011;42419;48.760;2.322;2022-08-01T02:11:12;1.90;;;1.30;;
56517;SDS011;42419;48.760;2.322;2022-08-01T02:13:46;2.10;;;1.43;;
56517;SDS011;42419;48.760;2.322;2022-08-01T02:16:24;1.60;;;1.23;;
56517;SDS011;42419;48.760;2.322;2022-08-01T02:18:51;1.40;;;1.30;;
56517;SDS011;42419;48.760;2.322;2022-08-01T02:21:19;1.13;;;1.00;;
56517;SDS011;42419;48.760;2.322;2022-08-01T02:23:50;1.40;;;1.10;;
56517;SDS011;42419;48.760;2.322;2022-08-01T02:26:16;1.47;;;1.00;;
56517;SDS011;42419;48.760;2.322;2022-08-01T02:28:45;1.20;;;1.10;;
56517;SDS011;42419;48.760;2.322;2022-08-01T02:31:19;2.07;;;1.20;;
56517;SDS011;42419;48.760;2.322;2022-08-01T02:33:50;1.60;;;1.17;;
56517;SDS011;42419;48.760;2.322;2022-08-01T02:36:21;1.30;;;1.20;;
56517;SDS011;42419;48.760;2.322;2022-08-01T02:38:50;1.67;;;1.23;;
56517;SDS011;42419;48.760;2.322;2022-08-01T02:41:20;3.67;;;1.40;;
56517;SDS011;42419;48.760;2.322;2022-08-01T02:43:48;1.30;;;1.20;;
56517;SDS011;42419;48.760;2.322;2022-08-01T02:46:17;1.40;;;1.20;;
56517;SDS011;42419;48.760;2.322;2022-08-01T02:48:48;1.30;;;1.20;;
56517;SDS011;42419;48.760;2.322;2022-08-01T02:51:18;1.50;;;1.40;;
56517;SDS011;42419;48.760;2.322;2022-08-01T02:53:46;1.60;;;1.50;;
56517;SDS011;42419;48.760;2.322;2022-08-01T02:56:13;1.57;;;1.33;;
56517;SDS011;42419;48.760;2.322;2022-08-01T02:58:40;1.37;;;1.27;;
56517;SDS011;42419;48.760;2.322;2022-08-01T03:01:07;1.37;;;1.27;;
56517;SDS011;42419;48.760;2.322;2022-08-01T03:03:34;1.80;;;1.30;;
56517;SDS011;42419;48.760;2.322;2022-08-01T03:06:00;1.27;;;1.13;;
56517;SDS011;42419;48.760;2.322;2022-08-01T03:08:28;1.40;;;1.30;;
56517;SDS011;42419;48.760;2.322;2022-08-01T03:10:55;1.60;;;1.50;;
56517;SDS011;42419;48.760;2.322;2022-08-01T03:13:23;1.40;;;1.27;;
56517;SDS011;42419;48.760;2.322;2022-08-01T03:15:50;1.50;;;1.40;;
56517;SDS011;42419;48.760;2.322;2022-08-01T03:18:19;1.33;;;1.10;;
56517;SDS011;42419;48.760;2.322;2022-08-01T03:20:48;1.23;;;1.13;;
56517;SDS011;42419;48.760;2.322;2022-08-01T03:23:15;1.50;;;1.10;;
56517;SDS011;42419;48.760;2.322;2022-08-01T03:25:42;2.23;;;1.20;;
56517;SDS011;42419;48.760;2.322;2022-08-01T03:28:10;2.30;;;1.27;;
56517;SDS011;42419;48.760;2.322;2022-08-01T03:30:38;1.30;;;1.20;;
56517;SDS011;42419;48.760;2.322;2022-08-01T03:33:05;1.20;;;1.00;;
56517;SDS011;42419;48.760;2.322;2022-08-01T03:35:36;3.00;;;1.20;;
56517;SDS011;42419;48.760;2.322;2022-08-01T03:38:07;1.60;;;1.43;;
56517;SDS011;42419;48.760;2.322;2022-08-01T03:40:37;1.20;;;1.10;;
56517;SDS011;42419;48.760;2.322;2022-08-01T03:43:14;1.30;;;1.20;;
56517;SDS011;42419;48.760;2.322;2022-08-01T03:45:45;1.20;;;1.10;;
56517;SDS011;42419;48.760;2.322;2022-08-01T03:48:13;1.53;;;1.20;;
56517;SDS011;42419;48.760;2.322;2022-08-01T03:50:43;1.40;;;1.30;;
56517;SDS011;42419;48.760;2.322;2022-08-01T03:53:11;1.87;;;1.30;;
56517;SDS011;42419;48.760;2.322;2022-08-01T03:55:39;1.30;;;1.20;;
56517;SDS011;42419;48.760;2.322;2022-08-01T03:58:07;1.53;;;1.40;;
56517;SDS011;42419;48.760;2.322;2022-08-01T04:00:33;1.70;;;1.50;;
56517;SDS011;42419;48.760;2.322;2022-08-01T04:03:03;1.63;;;1.37;;
56517;SDS011;42419;48.760;2.322;2022-08-01T04:05:29;1.30;;;1.20;;
56517;SDS011;42419;48.760;2.322;2022-08-01T04:07:56;1.67;;;1.23;;
56517;SDS011;42419;48.760;2.322;2022-08-01T04:10:22;1.50;;;1.30;;
56517;SDS011;42419;48.760;2.322;2022-08-01T04:12:49;2.33;;;1.40;;
56517;SDS011;42419;48.760;2.322;2022-08-01T04:15:14;1.20;;;1.10;;
56517;SDS011;42419;48.760;2.322;2022-08-01T04:17:40;1.40;;;1.30;;
56517;SDS011;42419;48.760;2.322;2022-08-01T04:20:05;1.43;;;1.10;;
56517;SDS011;42419;48.760;2.322;2022-08-01T04:22:31;1.30;;;1.07;;
56517;SDS011;42419;48.760;2.322;2022-08-01T04:24:57;1.63;;;1.37;;
56517;SDS011;42419;48.760;2.322;2022-08-01T04:27:36;2.57;;;1.30;;
56517;SDS011;42419;48.760;2.322;2022-08-01T04:30:03;2.20;;;1.30;;
56517;SDS011;42419;48.760;2.322;2022-08-01T04:32:31;1.53;;;1.30;;
56517;SDS011;42419;48.760;2.322;2022-08-01T04:34:59;1.53;;;1.20;;
56517;SDS011;42419;48.760;2.322;2022-08-01T04:37:29;1.30;;;1.20;;
56517;SDS011;42419;48.760;2.322;2022-08-01T04:39:56;1.37;;;1.27;;
56517;SDS011;42419;48.760;2.322;2022-08-01T04:42:23;2.00;;;1.40;;
56517;SDS011;42419;48.760;2.322;2022-08-01T04:44:48;1.40;;;1.20;;
56517;SDS011;42419;48.760;2.322;2022-08-01T04:47:14;1.27;;;1.17;;
56517;SDS011;42419;48.760;2.322;2022-08-01T04:49:39;2.53;;;1.27;;
56517;SDS011;42419;48.760;2.322;2022-08-01T04:52:05;1.70;;;1.30;;
56517;SDS011;42419;48.760;2.322;2022-08-01T04:54:32;1.23;;;1.13;;
56517;SDS011;42419;48.760;2.322;2022-08-01T04:57:01;1.67;;;1.20;;
56517;SDS011;42419;48.760;2.322;2022-08-01T04:59:35;1.37;;;1.23;;
56517;SDS011;42419;48.760;2.322;2022-08-01T05:04:39;1.73;;;1.43;;
56517;SDS011;42419;48.760;2.322;2022-08-01T05:07:07;1.40;;;1.30;;
56517;SDS011;42419;48.760;2.322;2022-08-01T05:09:33;1.30;;;1.20;;
56517;SDS011;42419;48.760;2.322;2022-08-01T05:12:00;1.47;;;1.37;;
56517;SDS011;42419;48.760;2.322;2022-08-01T05:14:28;1.23;;;1.13;;
56517;SDS011;42419;48.760;2.322;2022-08-01T05:16:56;1.80;;;1.27;;
56517;SDS011;42419;48.760;2.322;2022-08-01T05:19:22;1.60;;;1.23;;
56517;SDS011;42419;48.760;2.322;2022-08-01T05:21:48;1.40;;;1.00;;
56517;SDS011;42419;48.760;2.322;2022-08-01T05:24:13;1.47;;;1.20;;
56517;SDS011;42419;48.760;2.322;2022-08-01T05:26:38;1.20;;;1.10;;
56517;SDS011;42419;48.760;2.322;2022-08-01T05:29:04;3.30;;;1.40;;
56517;SDS011;42419;48.760;2.322;2022-08-01T05:31:30;1.43;;;1.33;;
56517;SDS011;42419;48.760;2.322;2022-08-01T05:33:57;2.17;;;1.60;;
56517;SDS011;42419;48.760;2.322;2022-08-01T05:36:22;1.30;;;1.20;;
56517;SDS011;42419;48.760;2.322;2022-08-01T05:38:48;1.50;;;1.30;;
56517;SDS011;42419;48.760;2.322;2022-08-01T05:41:13;1.60;;;1.30;;
56517;SDS011;42419;48.760;2.322;2022-08-01T05:43:38;1.50;;;1.30;;
56517;SDS011;42419;48.760;2.322;2022-08-01T05:46:04;1.40;;;1.27;;
56517;SDS011;42419;48.760;2.322;2022-08-01T05:48:29;2.13;;;1.87;;
56517;SDS011;42419;48.760;2.322;2022-08-01T05:50:55;1.70;;;1.60;;
56517;SDS011;42419;48.760;2.322;2022-08-01T05:53:20;2.00;;;1.80;;
56517;SDS011;42419;48.760;2.322;2022-08-01T05:55:46;1.70;;;1.60;;
56517;SDS011;42419;48.760;2.322;2022-08-01T05:58:11;1.90;;;1.80;;
56517;SDS011;42419;48.760;2.322;2022-08-01T06:00:36;1.60;;;1.50;;
56517;SDS011;42419;48.760;2.322;2022-08-01T06:03:02;2.47;;;1.60;;
56517;SDS011;42419;48.760;2.322;2022-08-01T06:05:27;3.13;;;2.60;;
56517;SDS011;42419;48.760;2.322;2022-08-01T06:07:53;1.40;;;1.30;;
56517;SDS011;42419;48.760;2.322;2022-08-01T06:10:18;1.97;;;1.20;;
56517;SDS011;42419;48.760;2.322;2022-08-01T06:12:44;2.60;;;1.40;;
56517;SDS011;42419;48.760;2.322;2022-08-01T06:15:09;1.50;;;1.40;;
56517;SDS011;42419;48.760;2.322;2022-08-01T06:17:35;2.70;;;1.60;;
56517;SDS011;42419;48.760;2.322;2022-08-01T06:20:00;1.73;;;1.40;;
56517;SDS011;42419;48.760;2.322;2022-08-01T06:22:26;1.63;;;1.10;;
56517;SDS011;42419;48.760;2.322;2022-08-01T06:24:51;2.13;;;1.40;;
56517;SDS011;42419;48.760;2.322;2022-08-01T06:27:17;1.40;;;1.00;;
56517;SDS011;42419;48.760;2.322;2022-08-01T06:29:42;1.40;;;1.20;;
56517;SDS011;42419;48.760;2.322;2022-08-01T06:32:08;1.20;;;1.10;;
56517;SDS011;42419;48.760;2.322;2022-08-01T06:34:34;1.50;;;1.30;;
56517;SDS011;42419;48.760;2.322;2022-08-01T06:37:00;1.70;;;1.60;;
56517;SDS011;42419;48.760;2.322;2022-08-01T06:39:25;1.50;;;1.40;;
56517;SDS011;42419;48.760;2.322;2022-08-01T06:41:50;1.73;;;1.50;;
56517;SDS011;42419;48.760;2.322;2022-08-01T06:44:16;1.73;;;1.50;;
56517;SDS011;42419;48.760;2.322;2022-08-01T06:46:41;1.70;;;1.40;;
56517;SDS011;42419;48.760;2.322;2022-08-01T06:49:07;1.83;;;1.20;;
56517;SDS011;42419;48.760;2.322;2022-08-01T06:51:32;1.30;;;1.20;;
56517;SDS011;42419;48.760;2.322;2022-08-01T06:53:57;1.53;;;1.20;;
56517;SDS011;42419;48.760;2.322;2022-08-01T06:56:23;1.30;;;1.20;;
56517;SDS011;42419;48.760;2.322;2022-08-01T06:58:51;1.30;;;1.20;;
56517;SDS011;42419;48.760;2.322;2022-08-01T07:01:17;1.80;;;1.70;;
56517;SDS011;42419;48.760;2.322;2022-08-01T07:03:42;1.50;;;1.40;;
56517;SDS011;42419;48.760;2.322;2022-08-01T07:06:08;2.00;;;1.80;;
56517;SDS011;42419;48.760;2.322;2022-08-01T07:08:34;2.67;;;1.90;;
56517;SDS011;42419;48.760;2.322;2022-08-01T07:10:59;2.67;;;2.23;;
56517;SDS011;42419;48.760;2.322;2022-08-01T07:13:26;2.20;;;2.00;;
56517;SDS011;42419;48.760;2.322;2022-08-01T07:15:52;2.00;;;1.90;;
56517;SDS011;42419;48.760;2.322;2022-08-01T07:18:17;1.90;;;1.80;;
56517;SDS011;42419;48.760;2.322;2022-08-01T07:20:43;2.43;;;2.10;;
56517;SDS011;42419;48.760;2.322;2022-08-01T07:23:10;2.70;;;1.80;;
56517;SDS011;42419;48.760;2.322;2022-08-01T07:25:36;2.07;;;1.87;;
56517;SDS011;42419;48.760;2.322;2022-08-01T07:28:01;2.10;;;1.90;;
56517;SDS011;42419;48.760;2.322;2022-08-01T07:30:27;2.03;;;1.80;;
56517;SDS011;42419;48.760;2.322;2022-08-01T07:32:52;1.50;;;1.40;;
56517;SDS011;42419;48.760;2.322;2022-08-01T07:35:17;1.87;;;1.43;;
56517;SDS011;42419;48.760;2.322;2022-08-01T07:37:43;1.80;;;1.70;;
56517;SDS011;42419;48.760;2.322;2022-08-01T07:40:08;1.67;;;1.57;;
56517;SDS011;42419;48.760;2.322;2022-08-01T07:42:34;1.50;;;1.13;;
56517;SDS011;42419;48.760;2.322;2022-08-01T07:45:00;1.40;;;1.30;;
56517;SDS011;42419;48.760;2.322;2022-08-01T07:47:25;1.70;;;1.23;;
56517;SDS011;42419;48.760;2.322;2022-08-01T07:49:52;1.40;;;1.30;;
56517;SDS011;42419;48.760;2.322;2022-08-01T07:52:23;1.30;;;1.20;;
56517;SDS011;42419;48.760;2.322;2022-08-01T07:54:48;1.80;;;1.30;;
56517;SDS011;42419;48.760;2.322;2022-08-01T07:57:14;1.30;;;1.10;;
56517;SDS011;42419;48.760;2.322;2022-08-01T07:59:39;1.27;;;1.17;;
56517;SDS011;42419;48.760;2.322;2022-08-01T08:02:05;1.63;;;1.23;;
56517;SDS011;42419;48.760;2.322;2022-08-01T08:04:30;1.33;;;1.23;;
56517;SDS011;42419;48.760;2.322;2022-08-01T08:06:55;1.40;;;1.20;;
56517;SDS011;42419;48.760;2.322;2022-08-01T08:09:21;2.30;;;1.43;;
56517;SDS011;42419;48.760;2.322;2022-08-01T08:11:46;1.37;;;1.20;;
56517;SDS011;42419;48.760;2.322;2022-08-01T08:14:15;1.60;;;1.40;;
56517;SDS011;42419;48.760;2.322;2022-08-01T08:16:41;1.40;;;1.20;;
56517;SDS011;42419;48.760;2.322;2022-08-01T08:19:07;1.70;;;1.60;;
56517;SDS011;42419;48.760;2.322;2022-08-01T08:21:33;1.50;;;1.40;;
56517;SDS011;42419;48.760;2.322;2022-08-01T08:23:58;1.90;;;1.77;;
56517;SDS011;42419;48.760;2.322;2022-08-01T08:26:43;1.53;;;1.43;;
56517;SDS011;42419;48.760;2.322;2022-08-01T08:29:08;1.90;;;1.80;;
56517;SDS011;42419;48.760;2.322;2022-08-01T08:31:33;1.50;;;1.40;;
56517;SDS011;42419;48.760;2.322;2022-08-01T08:33:59;1.50;;;1.40;;
56517;SDS011;42419;48.760;2.322;2022-08-01T08:36:24;1.63;;;1.53;;
56517;SDS011;42419;48.760;2.322;2022-08-01T08:38:49;1.57;;;1.23;;
56517;SDS011;42419;48.760;2.322;2022-08-01T08:41:14;1.70;;;1.60;;
56517;SDS011;42419;48.760;2.322;2022-08-01T08:43:40;1.80;;;1.70;;
56517;SDS011;42419;48.760;2.322;2022-08-01T08:46:05;1.70;;;1.60;;
56517;SDS011;42419;48.760;2.322;2022-08-01T08:48:33;1.50;;;1.37;;
56517;SDS011;42419;48.760;2.322;2022-08-01T08:51:00;1.60;;;1.50;;
56517;SDS011;42419;48.760;2.322;2022-08-01T08:53:27;1.50;;;1.40;;
56517;SDS011;42419;48.760;2.322;2022-08-01T08:55:54;1.70;;;1.60;;
56517;SDS011;42419;48.760;2.322;2022-08-01T08:58:21;1.50;;;1.40;;
56517;SDS011;42419;48.760;2.322;2022-08-01T09:00:50;1.30;;;1.10;;
56517;SDS011;42419;48.760;2.322;2022-08-01T09:03:17;1.40;;;1.30;;
56517;SDS011;42419;48.760;2.322;2022-08-01T09:05:42;1.40;;;1.30;;
56517;SDS011;42419;48.760;2.322;2022-08-01T09:08:12;1.50;;;1.33;;
56517;SDS011;42419;48.760;2.322;2022-08-01T09:10:37;1.57;;;1.47;;
56517;SDS011;42419;48.760;2.322;2022-08-01T09:15:41;1.43;;;1.33;;
56517;SDS011;42419;48.760;2.322;2022-08-01T09:18:28;1.67;;;1.57;;
56517;SDS011;42419;48.760;2.322;2022-08-01T09:26:14;1.57;;;1.47;;
56517;SDS011;42419;48.760;2.322;2022-08-01T09:28:41;2.03;;;1.40;;
56517;SDS011;42419;48.760;2.322;2022-08-01T09:31:12;1.43;;;1.33;;
56517;SDS011;42419;48.760;2.322;2022-08-01T09:36:22;1.83;;;1.33;;
56517;SDS011;42419;48.760;2.322;2022-08-01T09:38:53;1.40;;;1.30;;
56517;SDS011;42419;48.760;2.322;2022-08-01T09:41:29;1.73;;;1.23;;
56517;SDS011;42419;48.760;2.322;2022-08-01T09:43:56;1.50;;;1.40;;
56517;SDS011;42419;48.760;2.322;2022-08-01T09:46:22;1.60;;;1.50;;
56517;SDS011;42419;48.760;2.322;2022-08-01T09:49:27;2.30;;;1.83;;
56517;SDS011;42419;48.760;2.322;2022-08-01T09:51:51;1.53;;;1.43;;
56517;SDS011;42419;48.760;2.322;2022-08-01T09:54:17;2.20;;;1.73;;
56517;SDS011;42419;48.760;2.322;2022-08-01T09:56:53;2.30;;;2.10;;
56517;SDS011;42419;48.760;2.322;2022-08-01T09:59:19;1.80;;;1.53;;
56517;SDS011;42419;48.760;2.322;2022-08-01T10:01:45;1.67;;;1.57;;
56517;SDS011;42419;48.760;2.322;2022-08-01T10:04:15;2.53;;;1.73;;
56517;SDS011;42419;48.760;2.322;2022-08-01T10:06:43;1.80;;;1.70;;
56517;SDS011;42419;48.760;2.322;2022-08-01T10:09:11;1.60;;;1.40;;
56517;SDS011;42419;48.760;2.322;2022-08-01T10:11:39;1.87;;;1.77;;
56517;SDS011;42419;48.760;2.322;2022-08-01T10:14:06;1.97;;;1.63;;
56517;SDS011;42419;48.760;2.322;2022-08-01T10:16:33;1.30;;;1.20;;
56517;SDS011;42419;48.760;2.322;2022-08-01T10:19:05;1.30;;;1.20;;
56517;SDS011;42419;48.760;2.322;2022-08-01T10:21:33;1.67;;;1.40;;
56517;SDS011;42419;48.760;2.322;2022-08-01T10:24:02;1.40;;;1.30;;
56517;SDS011;42419;48.760;2.322;2022-08-01T10:26:29;1.63;;;1.53;;
56517;SDS011;42419;48.760;2.322;2022-08-01T10:28:58;1.47;;;1.37;;
56517;SDS011;42419;48.760;2.322;2022-08-01T10:31:23;1.50;;;1.40;;
56517;SDS011;42419;48.760;2.322;2022-08-01T10:33:49;1.67;;;1.57;;
56517;SDS011;42419;48.760;2.322;2022-08-01T10:36:17;1.50;;;1.40;;
56517;SDS011;42419;48.760;2.322;2022-08-01T10:38:45;1.70;;;1.60;;
56517;SDS011;42419;48.760;2.322;2022-08-01T10:41:10;1.43;;;1.33;;
56517;SDS011;42419;48.760;2.322;2022-08-01T10:43:38;1.40;;;1.23;;
56517;SDS011;42419;48.760;2.322;2022-08-01T10:46:03;1.60;;;1.50;;
56517;SDS011;42419;48.760;2.322;2022-08-01T10:48:31;1.37;;;1.07;;
56517;SDS011;42419;48.760;2.322;2022-08-01T10:50:59;1.40;;;1.30;;
56517;SDS011;42419;48.760;2.322;2022-08-01T10:53:27;2.77;;;1.40;;
56517;SDS011;42419;48.760;2.322;2022-08-01T11:01:22;1.73;;;1.47;;
56517;SDS011;42419;48.760;2.322;2022-08-01T11:06:36;1.40;;;1.30;;
56517;SDS011;42419;48.760;2.322;2022-08-01T11:14:33;1.70;;;1.60;;
56517;SDS011;42419;48.760;2.322;2022-08-01T11:17:32;1.73;;;1.63;;
56517;SDS011;42419;48.760;2.322;2022-08-01T11:20:11;1.50;;;1.40;;
56517;SDS011;42419;48.760;2.322;2022-08-01T11:26:10;1.50;;;1.40;;
56517;SDS011;42419;48.760;2.322;2022-08-01T11:30:42;1.50;;;1.40;;
56517;SDS011;42419;48.760;2.322;2022-08-01T11:33:12;1.53;;;1.43;;
56517;SDS011;42419;48.760;2.322;2022-08-01T11:36:16;1.40;;;1.30;;
56517;SDS011;42419;48.760;2.322;2022-08-01T11:38:43;1.53;;;1.43;;
56517;SDS011;42419;48.760;2.322;2022-08-01T11:43:35;1.77;;;1.67;;
56517;SDS011;42419;48.760;2.322;2022-08-01T11:46:00;2.00;;;1.80;;
56517;SDS011;42419;48.760;2.322;2022-08-01T11:48:26;1.97;;;1.63;;
56517;SDS011;42419;48.760;2.322;2022-08-01T11:50:56;1.40;;;1.30;;
56517;SDS011;42419;48.760;2.322;2022-08-01T11:53:22;1.67;;;1.57;;
56517;SDS011;42419;48.760;2.322;2022-08-01T11:55:49;2.00;;;1.87;;
56517;SDS011;42419;48.760;2.322;2022-08-01T11:58:20;1.70;;;1.60;;
56517;SDS011;42419;48.760;2.322;2022-08-01T12:00:57;1.83;;;1.73;;
56517;SDS011;42419;48.760;2.322;2022-08-01T12:03:30;1.80;;;1.70;;
56517;SDS011;42419;48.760;2.322;2022-08-01T12:05:57;2.03;;;1.93;;
56517;SDS011;42419;48.760;2.322;2022-08-01T12:08:27;2.27;;;2.07;;
56517;SDS011;42419;48.760;2.322;2022-08-01T12:10:53;1.80;;;1.70;;
56517;SDS011;42419;48.760;2.322;2022-08-01T12:13:19;1.40;;;1.30;;
56517;SDS011;42419;48.760;2.322;2022-08-01T12:15:45;1.60;;;1.50;;
56517;SDS011;42419;48.760;2.322;2022-08-01T12:18:11;1.70;;;1.60;;
56517;SDS011;42419;48.760;2.322;2022-08-01T12:20:41;1.70;;;1.60;;
56517;SDS011;42419;48.760;2.322;2022-08-01T12:23:09;1.63;;;1.53;;
56517;SDS011;42419;48.760;2.322;2022-08-01T12:25:40;1.57;;;1.47;;
56517;SDS011;42419;48.760;2.322;2022-08-01T12:28:09;1.90;;;1.80;;
56517;SDS011;42419;48.760;2.322;2022-08-01T12:30:36;1.60;;;1.50;;
56517;SDS011;42419;48.760;2.322;2022-08-01T12:33:06;1.60;;;1.50;;
56517;SDS011;42419;48.760;2.322;2022-08-01T12:35:34;1.57;;;1.47;;
56517;SDS011;42419;48.760;2.322;2022-08-01T12:38:03;1.63;;;1.53;;
56517;SDS011;42419;48.760;2.322;2022-08-01T12:40:40;1.63;;;1.50;;
56517;SDS011;42419;48.760;2.322;2022-08-01T12:43:07;1.60;;;1.47;;
56517;SDS011;42419;48.760;2.322;2022-08-01T12:45:35;1.40;;;1.30;;
56517;SDS011;42419;48.760;2.322;2022-08-01T12:48:13;1.90;;;1.80;;
56517;SDS011;42419;48.760;2.322;2022-08-01T12:50:44;1.30;;;1.20;;
56517;SDS011;42419;48.760;2.322;2022-08-01T12:53:12;1.40;;;1.30;;
56517;SDS011;42419;48.760;2.322;2022-08-01T12:55:44;1.50;;;1.40;;
56517;SDS011;42419;48.760;2.322;2022-08-01T12:58:12;1.53;;;1.30;;
56517;SDS011;42419;48.760;2.322;2022-08-01T13:00:39;1.87;;;1.60;;
56517;SDS011;42419;48.760;2.322;2022-08-01T13:03:08;1.60;;;1.50;;
56517;SDS011;42419;48.760;2.322;2022-08-01T13:08:21;1.40;;;1.30;;
56517;SDS011;42419;48.760;2.322;2022-08-01T13:10:48;1.17;;;1.07;;
56517;SDS011;42419;48.760;2.322;2022-08-01T13:13:14;1.43;;;1.33;;
56517;SDS011;42419;48.760;2.322;2022-08-01T13:15:41;1.50;;;1.40;;
56517;SDS011;42419;48.760;2.322;2022-08-01T13:21:06;1.80;;;1.70;;
56517;SDS011;42419;48.760;2.322;2022-08-01T13:23:34;1.60;;;1.50;;
56517;SDS011;42419;48.760;2.322;2022-08-01T13:25:59;1.63;;;1.53;;
56517;SDS011;42419;48.760;2.322;2022-08-01T13:28:26;1.40;;;1.30;;
56517;SDS011;42419;48.760;2.322;2022-08-01T13:33:39;1.70;;;1.60;;
56517;SDS011;42419;48.760;2.322;2022-08-01T13:36:09;1.40;;;1.30;;
56517;SDS011;42419;48.760;2.322;2022-08-01T13:38:35;1.67;;;1.57;;
56517;SDS011;42419;48.760;2.322;2022-08-01T13:41:20;2.10;;;1.90;;
56517;SDS011;42419;48.760;2.322;2022-08-01T13:43:45;2.43;;;2.23;;
56517;SDS011;42419;48.760;2.322;2022-08-01T13:46:10;2.57;;;1.93;;
56517;SDS011;42419;48.760;2.322;2022-08-01T13:48:36;2.87;;;2.67;;
56517;SDS011;42419;48.760;2.322;2022-08-01T13:51:01;2.10;;;2.00;;
56517;SDS011;42419;48.760;2.322;2022-08-01T13:53:27;2.30;;;2.10;;
56517;SDS011;42419;48.760;2.322;2022-08-01T13:55:53;2.13;;;1.93;;
56517;SDS011;42419;48.760;2.322;2022-08-01T13:58:18;2.30;;;1.80;;
56517;SDS011;42419;48.760;2.322;2022-08-01T14:00:44;1.90;;;1.80;;
56517;SDS011;42419;48.760;2.322;2022-08-01T14:03:10;1.90;;;1.80;;
56517;SDS011;42419;48.760;2.322;2022-08-01T14:05:36;1.73;;;1.63;;
56517;SDS011;42419;48.760;2.322;2022-08-01T14:08:01;2.20;;;2.00;;
56517;SDS011;42419;48.760;2.322;2022-08-01T14:10:27;1.73;;;1.63;;
56517;SDS011;42419;48.760;2.322;2022-08-01T14:12:52;2.20;;;2.00;;
56517;SDS011;42419;48.760;2.322;2022-08-01T14:15:18;2.30;;;1.93;;
56517;SDS011;42419;48.760;2.322;2022-08-01T14:17:43;2.10;;;1.90;;
56517;SDS011;42419;48.760;2.322;2022-08-01T14:20:09;2.20;;;2.10;;
56517;SDS011;42419;48.760;2.322;2022-08-01T14:22:35;3.07;;;2.60;;
56517;SDS011;42419;48.760;2.322;2022-08-01T14:25:01;2.10;;;1.90;;
56517;SDS011;42419;48.760;2.322;2022-08-01T14:27:26;2.37;;;2.17;;
56517;SDS011;42419;48.760;2.322;2022-08-01T14:29:53;2.47;;;2.27;;
56517;SDS011;42419;48.760;2.322;2022-08-01T14:32:19;2.33;;;2.13;;
56517;SDS011;42419;48.760;2.322;2022-08-01T14:34:44;2.13;;;1.93;;
56517;SDS011;42419;48.760;2.322;2022-08-01T14:37:09;2.50;;;1.93;;
56517;SDS011;42419;48.760;2.322;2022-08-01T14:39:35;1.90;;;1.60;;
56517;SDS011;42419;48.760;2.322;2022-08-01T14:42:00;1.90;;;1.70;;
56517;SDS011;42419;48.760;2.322;2022-08-01T14:44:25;1.90;;;1.80;;
56517;SDS011;42419;48.760;2.322;2022-08-01T14:46:51;2.27;;;1.70;;
56517;SDS011;42419;48.760;2.322;2022-08-01T14:49:16;1.80;;;1.70;;
56517;SDS011;42419;48.760;2.322;2022-08-01T14:51:41;1.90;;;1.80;;
56517;SDS011;42419;48.760;2.322;2022-08-01T14:54:07;1.63;;;1.53;;
56517;SDS011;42419;48.760;2.322;2022-08-01T14:56:32;1.93;;;1.83;;
56517;SDS011;42419;48.760;2.322;2022-08-01T14:58:58;2.20;;;2.10;;
56517;SDS011;42419;48.760;2.322;2022-08-01T15:01:23;1.97;;;1.87;;
56517;SDS011;42419;48.760;2.322;2022-08-01T15:03:49;2.50;;;2.30;;
56517;SDS011;42419;48.760;2.322;2022-08-01T15:06:15;2.73;;;2.37;;
56517;SDS011;42419;48.760;2.322;2022-08-01T15:08:41;2.57;;;2.33;;
56517;SDS011;42419;48.760;2.322;2022-08-01T15:11:08;2.63;;;2.43;;
56517;SDS011;42419;48.760;2.322;2022-08-01T15:13:33;2.37;;;2.17;;
56517;SDS011;42419;48.760;2.322;2022-08-01T15:15:59;2.30;;;2.10;;
56517;SDS011;42419;48.760;2.322;2022-08-01T15:18:24;2.10;;;1.90;;
56517;SDS011;42419;48.760;2.322;2022-08-01T15:20:49;2.87;;;2.10;;
56517;SDS011;42419;48.760;2.322;2022-08-01T15:23:15;2.37;;;2.17;;
56517;SDS011;42419;48.760;2.322;2022-08-01T15:25:40;2.10;;;1.90;;
56517;SDS011;42419;48.760;2.322;2022-08-01T15:28:06;1.80;;;1.70;;
56517;SDS011;42419;48.760;2.322;2022-08-01T15:30:31;2.17;;;1.97;;
56517;SDS011;42419;48.760;2.322;2022-08-01T15:32:57;1.73;;;1.63;;
56517;SDS011;42419;48.760;2.322;2022-08-01T15:35:23;2.10;;;1.90;;
56517;SDS011;42419;48.760;2.322;2022-08-01T15:37:48;1.90;;;1.70;;
56517;SDS011;42419;48.760;2.322;2022-08-01T15:40:13;1.77;;;1.67;;
56517;SDS011;42419;48.760;2.322;2022-08-01T15:42:39;1.77;;;1.67;;
56517;SDS011;42419;48.760;2.322;2022-08-01T15:45:05;1.50;;;1.40;;
56517;SDS011;42419;48.760;2.322;2022-08-01T15:47:32;1.70;;;1.60;;